Etusivu
METAR-TAF:

METAR-TAF

Lentoasemat :

Torino, Italia

Leveyspiiri: 45-13N, Pituuspiiri: 007-39E, korkeus merenpinnasta: 301 m

Tämänhetkinen sää

Tämä raportti tehtiin 24 minuuttia sitten, kello 00.20 UTC
Tuuli 7 kn pohjoisesta
Lämpötila 12°C
Kosteus 88%
Ilmanpaine 1017 hPa
Näkyvyys 10 km tai enemmän
Hajanaisia pilviä 9000 ft:n korkeudessa

METAR: LIMF 250020Z 36007KT 9999 SCT090 12/10 Q1017

Aika: 02:44 (00:44 UTC)

Sääennuste

Tämä raportti tehtiin 1 tunti ja 44 minuuttia sitten, kello 23.00 UTC
Ennuste voimassa 25. päivästä klo 00 UTC - 25. päivään klo 24 UTC
Tuuli 6 kn koillisesta
Näkyvyys: 7000 m
Hajanaisia pilviä 3000 ft:n korkeudessa
Ajoittain
25. päivästä klo 02 UTC - 25. päivään klo 07 UTC
Näkyvyys: 3500 m
utua
Todennäköisyys 40% :
Ajoittain
25. päivästä klo 15 UTC - 25. päivään klo 20 UTC
Näkyvyys: 4000 m
vesikuuroja

TAF: LIMF 242300Z 2500/2524 04006KT 7000 SCT030 TEMPO 2502/2507 3500 BR PROB40 TEMPO 2515/2520 4000 SHRA

Säähavainnot ja -ennusteet yli 4000 lentoasemalta (METAR- ja TAF-raportit).

Käytössä olevat sääasemat on merkitty karttaan keltaisilla ja punaisilla pisteillä.

Aseta hiiri pisteen päälle nähdäksesi sääaseman nimen.

Klikkaa sitten nähdäksesi säähavainnot ja -ennusteet.

Kartan vaihtaminen: klikkaa mustalla rastilla varustettuja vihreitä pisteitä, niin voit zoomata sisään; viivalla varustettua vihreää pistettä, niin voit zoomata ulos tai vihreitä nuolia, niin pääset viereisille kartoille.


METAR-TAF: